ROMMA est une association bénévole à but non lucratif. Votre soutien est indispensable : ADHERER à ROMMA ou FAIRE un DON

Chamrousse - (38, Isère)

Massif de Belledonne (1800 m)   Longitude: 05° 52' 28" E   Latitude: 45° 06' 28" N Station partenaire n°3
 

Détail journalier du     <<     >>

Température Precipitation Humidité Pression Vent Dir Rafale Dir. rafale
Heure (°C) (mm) (%) (hPa) (km/h) (km/h)
01:00 8.2047102013NE24NE
02:00 8.0050101913NE21NNE
03:00 8.0049101912ENE18ENE
04:00 7.7050101910NE15ENE
05:00 7.505010186E13ENE
06:00 7.405110198ENE13ENE
07:00 7.804610199ENE15ENE
08:00 8.304510207ENE15ENE
09:00 9.004210203E13ENE
10:00 10.604510191ENE11ENE
11:00 11.204910191E10E
12:00 10.905310193SSE15SO
13:00 11.605510193SO13SO
14:00 12.305510196SO18ONO
15:00 11.905710196ONO21ONO
16:00 12.305010187NO26NO
17:00 13.604510187ONO24ONO
18:00 13.304710188O23NO
19:00 13.104510177NO21NO
20:00 11.704610187NO16NNE
21:00 10.3050101911NNE15NNE
22:00 10.6047101813NNE16NNE
23:00 10.9046101710NNE15NNE
minuit 10.404510173NNE13NNE

Graphique du 03-05-2008

 

Serveur OMMA